Time;durP1;ratioP1;P1;durP2;ratioP2;P2;SDS_P1;SDS_P2;PMS_P1;PMS_P2;Temp;Humidity;BMP_temperature;BMP_pressure;BME280_temperature;BME280_humidity;BME280_pressure;Samples;Min_cycle;Max_cycle;Signal;HPM_P1;HPM_P2
2021/08/01 00:01:33;;;;;;;7.28;6.07;;;24.50;99.90;;;;;;5037707;28;20537;-85
2021/08/01 00:03:59;;;;;;;8.25;6.60;;;24.50;99.90;;;;;;5060706;28;20037;-86
2021/08/01 00:06:24;;;;;;;6.68;5.78;;;24.50;99.90;;;;;;5063069;28;20487;-85
2021/08/01 00:08:50;;;;;;;7.00;6.10;;;24.50;99.90;;;;;;5036855;28;20403;-87
2021/08/01 00:11:16;;;;;;;6.97;6.28;;;24.50;99.90;;;;;;5020367;28;20036;-85
2021/08/01 00:13:41;;;;;;;8.43;6.55;;;24.50;99.90;;;;;;5036369;28;20033;-85
2021/08/01 00:16:07;;;;;;;6.85;5.93;;;24.50;99.90;;;;;;5054391;28;20048;-85
2021/08/01 00:18:33;;;;;;;6.95;6.18;;;24.50;99.90;;;;;;5056408;28;20374;-85
2021/08/01 00:20:59;;;;;;;9.02;7.07;;;24.50;99.90;;;;;;5054031;28;20029;-85
2021/08/01 00:23:25;;;;;;;7.60;6.43;;;24.50;99.90;;;;;;5052857;28;20485;-85
2021/08/01 00:25:50;;;;;;;8.18;6.65;;;24.50;99.90;;;;;;5053877;28;20465;-85
2021/08/01 00:28:16;;;;;;;8.13;6.90;;;24.50;99.90;;;;;;5054280;28;20033;-85
2021/08/01 00:30:42;;;;;;;9.27;7.47;;;24.40;99.90;;;;;;5036378;28;20029;-85
2021/08/01 00:33:07;;;;;;;7.00;6.30;;;24.40;99.90;;;;;;5035497;28;20039;-86
2021/08/01 00:35:33;;;;;;;7.95;6.78;;;24.40;99.90;;;;;;5052425;28;20116;-84
2021/08/01 00:37:59;;;;;;;7.80;7.00;;;24.50;99.90;;;;;;5052641;28;20033;-85
2021/08/01 00:40:25;;;;;;;7.50;6.45;;;24.50;99.90;;;;;;5053321;28;20036;-85
2021/08/01 00:42:50;;;;;;;7.22;6.47;;;24.50;99.90;;;;;;5036169;28;20123;-85
2021/08/01 00:45:17;;;;;;;7.07;6.38;;;24.50;99.90;;;;;;5042088;28;20029;-84
2021/08/01 00:47:43;;;;;;;7.00;6.30;;;24.50;99.90;;;;;;5053303;28;20104;-84
2021/08/01 00:50:10;;;;;;;9.48;6.97;;;24.40;99.90;;;;;;5052565;28;20040;-85
2021/08/01 00:52:36;;;;;;;7.18;5.85;;;24.50;99.90;;;;;;5052253;28;20037;-85
2021/08/01 00:55:04;;;;;;;6.90;6.20;;;24.40;99.90;;;;;;5053491;28;20040;-85
2021/08/01 00:57:30;;;;;;;6.88;6.13;;;24.50;99.90;;;;;;5052393;28;20034;-85
2021/08/01 00:59:55;;;;;;;7.10;6.40;;;24.50;99.90;;;;;;5053845;28;20029;-87
2021/08/01 01:02:34;;;;;;;7.25;6.13;;;24.40;99.90;;;;;;5035737;28;20021;-85
2021/08/01 01:05:20;;;;;;;7.90;6.65;;;24.50;99.90;;;;;;5052243;28;20429;-85
2021/08/01 01:08:18;;;;;;;8.43;6.45;;;24.50;99.90;;;;;;5054394;28;20336;-85
2021/08/01 01:10:47;;;;;;;7.63;6.57;;;24.50;99.90;;;;;;4970257;28;20180;-85
2021/08/01 01:13:17;;;;;;;8.13;6.40;;;24.40;99.90;;;;;;5051966;28;20140;-85
2021/08/01 01:15:47;;;;;;;6.03;5.28;;;24.40;99.90;;;;;;5053622;28;20506;-85
2021/08/01 01:18:17;;;;;;;6.82;6.13;;;24.40;99.90;;;;;;5052308;28;20541;-85
2021/08/01 01:21:07;;;;;;;6.63;5.90;;;24.40;99.90;;;;;;5053750;28;20033;-85
2021/08/01 01:23:43;;;;;;;8.50;5.65;;;24.40;99.90;;;;;;5055105;28;20040;-85
2021/08/01 01:26:27;;;;;;;6.20;5.60;;;24.40;99.90;;;;;;5053009;28;20029;-85
2021/08/01 01:29:21;;;;;;;6.70;5.38;;;24.40;99.90;;;;;;5051689;28;20060;-84
2021/08/01 01:31:47;;;;;;;7.45;5.55;;;24.50;99.90;;;;;;5043578;28;20037;-85
2021/08/01 01:34:28;;;;;;;6.00;5.32;;;24.40;99.90;;;;;;5053109;28;20441;-85
2021/08/01 01:36:55;;;;;;;7.32;5.70;;;24.40;99.90;;;;;;5055164;28;20098;-85
2021/08/01 01:39:23;;;;;;;6.32;5.13;;;24.40;99.90;;;;;;5052478;28;20052;-85
2021/08/01 01:41:49;;;;;;;6.07;5.47;;;24.40;99.90;;;;;;5052477;28;20057;-85
2021/08/01 01:44:16;;;;;;;6.32;5.28;;;24.40;99.90;;;;;;5051035;28;20390;-84
2021/08/01 01:46:44;;;;;;;7.53;5.35;;;24.40;99.90;;;;;;5051665;28;20116;-85
2021/08/01 01:49:11;;;;;;;6.97;5.28;;;24.40;99.90;;;;;;5051483;28;20033;-85
2021/08/01 01:51:38;;;;;;;6.75;5.25;;;24.40;99.90;;;;;;5052971;28;20424;-85
2021/08/01 01:54:06;;;;;;;5.50;4.95;;;24.40;99.90;;;;;;5053115;28;20041;-85
2021/08/01 01:56:34;;;;;;;7.13;5.45;;;24.40;99.90;;;;;;5051855;28;20086;-85
2021/08/01 01:59:01;;;;;;;6.43;5.32;;;24.40;99.90;;;;;;5052656;28;20059;-89
2021/08/01 02:01:26;;;;;;;6.47;5.15;;;24.40;99.90;;;;;;5052949;28;20083;-85
2021/08/01 02:03:52;;;;;;;6.65;4.85;;;24.40;99.90;;;;;;5051460;28;20370;-85
2021/08/01 02:06:19;;;;;;;6.80;5.28;;;24.40;99.90;;;;;;5052720;28;20029;-85
2021/08/01 02:08:57;;;;;;;5.70;4.68;;;24.40;99.90;;;;;;5037383;28;20064;-85
2021/08/01 02:11:27;;;;;;;5.50;4.78;;;24.40;99.90;;;;;;5072138;28;20451;-85
2021/08/01 02:14:14;;;;;;;6.22;4.43;;;24.40;99.90;;;;;;5072653;28;20032;-85
2021/08/01 02:16:43;;;;;;;4.85;4.25;;;24.40;99.90;;;;;;5073096;28;20032;-85
2021/08/01 02:19:10;;;;;;;5.78;4.72;;;24.40;99.90;;;;;;5066361;28;20478;-85
2021/08/01 02:21:39;;;;;;;5.78;4.82;;;24.40;99.90;;;;;;5058624;28;20108;-85
2021/08/01 02:24:06;;;;;;;6.88;4.72;;;24.40;99.90;;;;;;5054287;28;20131;-85
2021/08/01 02:26:34;;;;;;;5.97;4.50;;;24.40;99.90;;;;;;5072674;28;20100;-85
2021/08/01 02:29:00;;;;;;;6.07;4.80;;;24.40;99.90;;;;;;5054144;28;20025;-87
2021/08/01 02:31:27;;;;;;;5.13;4.50;;;24.40;99.90;;;;;;5054084;28;20088;-85
2021/08/01 02:33:53;;;;;;;5.43;3.90;;;24.40;99.90;;;;;;5072291;28;20036;-85
2021/08/01 02:36:20;;;;;;;4.38;3.80;;;24.40;99.90;;;;;;5054620;28;20386;-85
2021/08/01 02:38:54;;;;;;;4.63;3.72;;;24.40;99.90;;;;;;5040614;28;20029;-85
2021/08/01 02:41:26;;;;;;;4.07;3.53;;;24.40;99.90;;;;;;5054130;28;20032;-85
2021/08/01 02:43:52;;;;;;;4.70;3.70;;;24.40;99.90;;;;;;5054108;28;20028;-85
2021/08/01 02:46:22;;;;;;;5.03;3.75;;;24.40;99.90;;;;;;5071995;28;20033;-85
2021/08/01 02:48:48;;;;;;;3.70;3.22;;;24.40;99.90;;;;;;5073304;28;20024;-85
2021/08/01 02:51:16;;;;;;;4.38;3.40;;;24.40;99.90;;;;;;5054114;28;20036;-85
2021/08/01 02:53:46;;;;;;;4.18;3.55;;;24.40;99.90;;;;;;5054000;28;20498;-85
2021/08/01 02:56:14;;;;;;;4.20;3.30;;;24.40;99.90;;;;;;5054308;28;20370;-85
2021/08/01 02:58:41;;;;;;;3.67;3.20;;;24.40;99.90;;;;;;5078103;28;20123;-85
2021/08/01 03:01:09;;;;;;;3.95;3.13;;;24.40;99.90;;;;;;5050611;28;20023;-93
2021/08/01 03:03:36;;;;;;;4.72;3.58;;;24.40;99.90;;;;;;5054591;28;20036;-85
2021/08/01 03:06:04;;;;;;;3.05;2.67;;;24.40;99.90;;;;;;5072548;28;20027;-85
2021/08/01 03:08:31;;;;;;;3.85;3.22;;;24.40;99.90;;;;;;5056687;28;20024;-85
2021/08/01 03:10:57;;;;;;;5.15;3.40;;;24.40;99.90;;;;;;5059245;28;20029;-85
2021/08/01 03:13:23;;;;;;;4.53;3.17;;;24.40;99.90;;;;;;5057437;28;20029;-85
2021/08/01 03:15:50;;;;;;;3.78;2.95;;;24.40;99.90;;;;;;5075741;28;20052;-85
2021/08/01 03:18:16;;;;;;;3.13;2.83;;;24.40;99.90;;;;;;5041249;28;20571;-85
2021/08/01 03:20:41;;;;;;;3.58;2.75;;;24.40;99.90;;;;;;5057635;28;20054;-85
2021/08/01 03:23:07;;;;;;;3.55;2.70;;;24.40;99.90;;;;;;5041658;28;20033;-91
2021/08/01 03:25:34;;;;;;;3.83;3.10;;;24.40;99.90;;;;;;5040821;28;20029;-84
2021/08/01 03:28:01;;;;;;;5.00;3.42;;;24.40;99.90;;;;;;5057453;28;20025;-85
2021/08/01 03:30:28;;;;;;;3.83;2.97;;;24.40;99.90;;;;;;5057268;28;20024;-85
2021/08/01 03:32:53;;;;;;;3.60;2.60;;;24.40;99.90;;;;;;5075016;28;20028;-85
2021/08/01 03:35:20;;;;;;;3.22;2.53;;;24.40;99.90;;;;;;5040469;28;20505;-85
2021/08/01 03:37:46;;;;;;;3.05;2.75;;;24.40;99.90;;;;;;5057096;28;20498;-85
2021/08/01 03:40:13;;;;;;;2.85;2.47;;;24.40;99.90;;;;;;5075117;28;20040;-85
2021/08/01 03:42:39;;;;;;;3.58;2.70;;;24.40;99.90;;;;;;5057635;28;20462;-85
2021/08/01 03:45:07;;;;;;;2.72;2.47;;;24.40;99.90;;;;;;5040732;28;20035;-84
2021/08/01 03:47:32;;;;;;;3.22;2.92;;;24.40;99.90;;;;;;5040628;28;20037;-85
2021/08/01 03:49:58;;;;;;;3.08;2.78;;;24.40;99.90;;;;;;5024582;28;20076;-85
2021/08/01 03:52:23;;;;;;;2.95;2.47;;;24.40;99.90;;;;;;5017400;28;20105;-85
2021/08/01 03:54:51;;;;;;;2.90;2.60;;;24.40;99.90;;;;;;5016751;28;20030;-85
2021/08/01 03:57:17;;;;;;;3.58;2.75;;;24.40;99.90;;;;;;5016185;28;20030;-85
2021/08/01 03:59:43;;;;;;;3.13;2.83;;;24.40;99.90;;;;;;5017271;28;20033;-85
2021/08/01 04:02:08;;;;;;;3.40;3.10;;;24.40;99.90;;;;;;5034899;28;20431;-85
2021/08/01 04:04:34;;;;;;;4.57;3.67;;;24.40;99.90;;;;;;5031404;28;20389;-84
2021/08/01 04:06:59;;;;;;;3.50;3.20;;;24.40;99.90;;;;;;5056636;28;20036;-85
2021/08/01 04:09:25;;;;;;;4.60;4.03;;;24.40;99.90;;;;;;5039337;28;20075;-84
2021/08/01 04:11:51;;;;;;;5.22;3.90;;;24.40;99.90;;;;;;5039769;28;20420;-85
2021/08/01 04:14:16;;;;;;;5.40;4.20;;;24.40;99.90;;;;;;5055717;28;20036;-85
2021/08/01 04:16:42;;;;;;;5.38;4.30;;;24.40;99.90;;;;;;5074433;28;20074;-85
2021/08/01 04:19:09;;;;;;;4.93;4.43;;;24.40;99.90;;;;;;5041292;28;20028;-85
2021/08/01 04:21:37;;;;;;;6.10;5.05;;;24.40;99.90;;;;;;5075331;28;20470;-89
2021/08/01 04:24:02;;;;;;;7.28;5.75;;;24.40;99.90;;;;;;5056022;28;20029;-85
2021/08/01 04:26:28;;;;;;;6.10;5.28;;;24.40;99.90;;;;;;5073480;28;20029;-85
2021/08/01 04:28:53;;;;;;;7.95;6.43;;;24.40;99.90;;;;;;5022762;28;20078;-85
2021/08/01 04:31:19;;;;;;;7.22;6.38;;;24.40;99.90;;;;;;5039313;28;20059;-85
2021/08/01 04:33:45;;;;;;;7.78;6.88;;;24.40;99.90;;;;;;5039777;28;20068;-85
2021/08/01 04:36:10;;;;;;;7.43;6.55;;;24.40;99.90;;;;;;5026075;28;20036;-84
2021/08/01 04:38:36;;;;;;;8.40;7.47;;;24.30;99.90;;;;;;5057394;28;20105;-85
2021/08/01 04:41:02;;;;;;;8.68;6.88;;;24.40;99.90;;;;;;5057657;28;20075;-85
2021/08/01 04:43:28;;;;;;;7.53;6.50;;;24.30;99.90;;;;;;5057047;28;20037;-85
2021/08/01 04:45:53;;;;;;;7.72;5.80;;;24.40;99.90;;;;;;5041004;28;20494;-85
2021/08/01 04:48:19;;;;;;;6.72;6.00;;;24.40;99.90;;;;;;5073792;28;20093;-85
2021/08/01 04:50:44;;;;;;;6.30;5.03;;;24.40;99.90;;;;;;5039081;28;20037;-85
2021/08/01 04:53:10;;;;;;;5.75;5.07;;;24.40;99.90;;;;;;5022133;28;20028;-85
2021/08/01 04:55:35;;;;;;;5.75;4.80;;;24.40;99.90;;;;;;5083457;28;20036;-85
2021/08/01 04:58:05;;;;;;;6.03;4.50;;;24.40;99.90;;;;;;5055147;28;20036;-85
2021/08/01 05:00:31;;;;;;;5.47;4.57;;;24.40;99.90;;;;;;5038833;28;20467;-84
2021/08/01 05:03:03;;;;;;;5.25;4.28;;;24.30;99.90;;;;;;5056236;28;20035;-85
2021/08/01 05:05:34;;;;;;;4.40;3.90;;;24.40;99.90;;;;;;5058971;28;20124;-85
2021/08/01 05:08:00;;;;;;;3.67;3.30;;;24.40;99.90;;;;;;5039672;28;20421;-84
2021/08/01 05:10:26;;;;;;;3.63;3.20;;;24.40;99.90;;;;;;5077208;28;20063;-85
2021/08/01 05:12:51;;;;;;;4.18;3.42;;;24.40;99.90;;;;;;5038275;28;20471;-84
2021/08/01 05:15:17;;;;;;;4.07;2.88;;;24.40;99.90;;;;;;5038328;28;20028;-84
2021/08/01 05:17:43;;;;;;;2.95;2.65;;;24.40;99.90;;;;;;5038681;28;20176;-85
2021/08/01 05:20:09;;;;;;;2.80;2.50;;;24.40;99.90;;;;;;5058686;28;20028;-85
2021/08/01 05:22:34;;;;;;;4.60;2.53;;;24.40;99.90;;;;;;5070160;28;20068;-84
2021/08/01 05:25:00;;;;;;;3.28;2.67;;;24.40;99.90;;;;;;5057554;28;20032;-86
2021/08/01 05:27:26;;;;;;;3.63;2.25;;;24.40;99.90;;;;;;5072717;28;20123;-85
2021/08/01 05:29:51;;;;;;;3.45;2.63;;;24.40;99.90;;;;;;5054845;28;20040;-85
2021/08/01 05:32:17;;;;;;;3.40;2.45;;;24.40;99.90;;;;;;5037448;28;20024;-85
2021/08/01 05:34:42;;;;;;;2.83;2.28;;;24.40;99.90;;;;;;5054361;28;20036;-85
2021/08/01 05:37:08;;;;;;;2.75;2.55;;;24.40;99.90;;;;;;5055104;28;20048;-85
2021/08/01 05:39:34;;;;;;;2.92;2.17;;;24.30;99.90;;;;;;5052650;28;20405;-85
2021/08/01 05:42:01;;;;;;;3.20;2.53;;;24.40;99.90;;;;;;5055015;28;20020;-85
2021/08/01 05:44:27;;;;;;;2.33;2.10;;;24.40;99.90;;;;;;5054747;28;20036;-85
2021/08/01 05:46:52;;;;;;;2.92;2.20;;;24.30;99.90;;;;;;5054816;28;20514;-85
2021/08/01 05:49:18;;;;;;;3.63;2.50;;;24.40;99.90;;;;;;5058737;28;20032;-85
2021/08/01 05:51:43;;;;;;;2.00;1.90;;;24.30;99.90;;;;;;5054212;28;20067;-85
2021/08/01 05:54:09;;;;;;;2.85;2.25;;;24.30;99.90;;;;;;5040019;28;20032;-85
2021/08/01 05:56:35;;;;;;;3.00;2.47;;;24.40;99.90;;;;;;5054104;28;20067;-85
2021/08/01 05:59:01;;;;;;;2.85;2.10;;;24.30;99.90;;;;;;5038331;28;20027;-85
2021/08/01 06:01:27;;;;;;;3.55;2.13;;;24.40;99.90;;;;;;5054509;28;20137;-85
2021/08/01 06:03:52;;;;;;;2.03;1.83;;;24.30;99.90;;;;;;5037763;28;20127;-85
2021/08/01 06:06:22;;;;;;;3.30;2.03;;;24.30;99.90;;;;;;5069612;28;20104;-85
2021/08/01 06:08:50;;;;;;;2.35;1.90;;;24.40;99.90;;;;;;5034665;28;20415;-85
2021/08/01 06:11:16;;;;;;;1.70;1.60;;;24.40;99.90;;;;;;5036077;28;20083;-85
2021/08/01 06:13:42;;;;;;;2.63;1.70;;;24.40;99.90;;;;;;5034180;28;20102;-85
2021/08/01 06:16:13;;;;;;;2.58;1.80;;;24.40;99.90;;;;;;5035374;28;20033;-85
2021/08/01 06:18:39;;;;;;;1.98;1.80;;;24.30;99.90;;;;;;5034154;28;20067;-85
2021/08/01 06:21:18;;;;;;;2.35;1.90;;;24.30;99.90;;;;;;5052989;28;20033;-85
2021/08/01 06:23:49;;;;;;;1.77;1.67;;;24.40;99.90;;;;;;5018043;28;20396;-85
2021/08/01 06:26:16;;;;;;;1.70;1.60;;;24.30;99.90;;;;;;5034240;28;20033;-84
2021/08/01 06:28:42;;;;;;;2.90;1.83;;;24.30;99.90;;;;;;5034299;28;20545;-85
2021/08/01 06:31:08;;;;;;;3.40;2.22;;;24.30;99.90;;;;;;5017936;28;20052;-84
2021/08/01 06:33:35;;;;;;;2.20;2.00;;;24.40;99.90;;;;;;5051651;28;20033;-85
2021/08/01 06:36:05;;;;;;;2.22;1.75;;;24.40;99.90;;;;;;5034310;28;20045;-84
2021/08/01 06:38:31;;;;;;;1.70;1.58;;;24.40;99.90;;;;;;5054290;28;20109;-85
2021/08/01 06:40:57;;;;;;;4.22;1.92;;;24.40;99.90;;;;;;5034105;28;20386;-85
2021/08/01 06:43:23;;;;;;;3.20;2.00;;;24.40;99.90;;;;;;5038704;28;20017;-84
2021/08/01 06:45:49;;;;;;;4.13;2.22;;;24.40;99.90;;;;;;5055246;28;20033;-84
2021/08/01 06:48:14;;;;;;;3.45;1.95;;;24.40;99.90;;;;;;5031586;28;20028;-84
2021/08/01 06:50:40;;;;;;;3.38;2.35;;;24.40;99.90;;;;;;5057995;28;20054;-85
2021/08/01 06:53:06;;;;;;;2.70;2.22;;;24.40;99.90;;;;;;5060194;28;20033;-85
2021/08/01 06:55:31;;;;;;;2.47;2.22;;;24.40;99.90;;;;;;5075816;28;20496;-85
2021/08/01 06:57:57;;;;;;;2.53;2.33;;;24.40;99.90;;;;;;5040691;28;20028;-84
2021/08/01 07:00:23;;;;;;;2.13;1.98;;;24.40;99.90;;;;;;5057581;28;20455;-85
2021/08/01 07:03:01;;;;;;;2.20;2.00;;;24.40;99.90;;;;;;5057428;28;20332;-84
2021/08/01 07:05:27;;;;;;;2.30;2.10;;;24.40;99.90;;;;;;5056945;28;20085;-85
2021/08/01 07:07:55;;;;;;;2.83;2.40;;;24.40;99.90;;;;;;5075305;28;20128;-84
2021/08/01 07:10:21;;;;;;;2.40;2.00;;;24.30;99.90;;;;;;5069352;28;20109;-84
2021/08/01 07:12:47;;;;;;;3.03;2.55;;;24.40;99.90;;;;;;5040426;28;20024;-85
2021/08/01 07:15:16;;;;;;;2.47;2.28;;;24.30;99.90;;;;;;5056927;28;20029;-84
2021/08/01 07:17:42;;;;;;;2.67;2.10;;;24.40;99.90;;;;;;5074781;28;20510;-85
2021/08/01 07:20:10;;;;;;;2.30;2.10;;;24.40;99.90;;;;;;5057245;28;20082;-84
2021/08/01 07:22:36;;;;;;;2.45;2.20;;;24.40;99.90;;;;;;5056662;28;20032;-85
2021/08/01 07:25:03;;;;;;;2.72;2.53;;;24.40;99.90;;;;;;5061749;28;20377;-85
2021/08/01 07:27:29;;;;;;;3.80;2.72;;;24.30;99.90;;;;;;5064604;28;20056;-84
2021/08/01 07:29:55;;;;;;;2.78;2.50;;;24.30;99.90;;;;;;5056522;28;20371;-85
2021/08/01 07:32:20;;;;;;;2.35;2.10;;;24.30;99.90;;;;;;5056898;28;20029;-84
2021/08/01 07:34:47;;;;;;;3.15;2.45;;;24.40;99.90;;;;;;5040271;28;20032;-84
2021/08/01 07:37:14;;;;;;;2.10;1.90;;;24.40;99.90;;;;;;5057404;28;20090;-84
2021/08/01 07:39:39;;;;;;;2.25;2.05;;;24.40;99.90;;;;;;5076640;28;20493;-84
2021/08/01 07:42:05;;;;;;;2.30;2.10;;;24.40;99.90;;;;;;5042098;28;20029;-84
2021/08/01 07:44:35;;;;;;;1.80;1.70;;;24.40;99.90;;;;;;5074225;28;20060;-84
2021/08/01 07:47:00;;;;;;;3.33;2.20;;;24.30;99.90;;;;;;5074111;28;20025;-84
2021/08/01 07:49:26;;;;;;;2.38;2.08;;;24.30;99.90;;;;;;5056327;28;20078;-84
2021/08/01 07:51:51;;;;;;;1.88;1.67;;;24.40;99.90;;;;;;5039692;28;20036;-84
2021/08/01 07:54:17;;;;;;;2.55;2.20;;;24.30;99.90;;;;;;5022539;28;20051;-84
2021/08/01 07:56:43;;;;;;;1.88;1.65;;;24.40;99.90;;;;;;5039276;28;20037;-84
2021/08/01 07:59:08;;;;;;;2.13;1.92;;;24.30;99.90;;;;;;5039624;28;20040;-84
2021/08/01 08:01:36;;;;;;;1.98;1.80;;;24.30;99.90;;;;;;5056085;28;20032;-84
2021/08/01 08:04:02;;;;;;;2.30;1.88;;;24.40;99.90;;;;;;5055923;28;20461;-85
2021/08/01 08:06:28;;;;;;;3.38;2.15;;;24.40;99.90;;;;;;5021873;28;20029;-84
2021/08/01 08:08:53;;;;;;;2.53;2.33;;;24.40;99.90;;;;;;5039038;28;20520;-84
2021/08/01 08:11:19;;;;;;;2.13;1.98;;;24.40;99.90;;;;;;5073791;28;20072;-83
2021/08/01 08:13:44;;;;;;;2.03;1.85;;;24.40;99.90;;;;;;5059759;28;20028;-90
2021/08/01 08:16:10;;;;;;;1.92;1.70;;;24.40;99.90;;;;;;5031811;28;20470;-83
2021/08/01 08:18:36;;;;;;;2.20;2.00;;;24.40;99.90;;;;;;5039517;28;20028;-84
2021/08/01 08:21:01;;;;;;;3.08;1.83;;;24.30;99.90;;;;;;5056045;28;20075;-85
2021/08/01 08:23:27;;;;;;;2.25;2.13;;;24.40;99.90;;;;;;5026944;28;20036;-85
2021/08/01 08:25:54;;;;;;;2.45;2.25;;;24.40;99.90;;;;;;5039517;28;20128;-84
2021/08/01 08:28:20;;;;;;;2.47;2.13;;;24.40;99.90;;;;;;5054814;28;20487;-85
2021/08/01 08:30:46;;;;;;;2.10;2.00;;;24.40;99.90;;;;;;5049416;28;20076;-84
2021/08/01 08:33:12;;;;;;;1.80;1.70;;;24.40;99.90;;;;;;5055970;28;20109;-83
2021/08/01 08:35:40;;;;;;;1.90;1.70;;;24.40;99.90;;;;;;5056308;28;20055;-85
2021/08/01 08:38:05;;;;;;;1.90;1.80;;;24.40;99.90;;;;;;5056027;28;20032;-83
2021/08/01 08:40:37;;;;;;;2.58;1.77;;;24.50;99.90;;;;;;5039916;28;20485;-82
2021/08/01 08:43:03;;;;;;;1.95;1.80;;;24.50;99.90;;;;;;5076211;28;20021;-84
2021/08/01 08:45:29;;;;;;;2.25;1.80;;;24.50;99.90;;;;;;5059068;28;20055;-85
2021/08/01 08:47:56;;;;;;;2.10;1.75;;;24.50;99.90;;;;;;5040410;28;20035;-85
2021/08/01 08:50:22;;;;;;;2.05;1.70;;;24.50;99.90;;;;;;5057499;28;20024;-85
2021/08/01 08:52:53;;;;;;;2.55;1.98;;;24.50;99.90;;;;;;5073308;28;20025;-85
2021/08/01 08:55:23;;;;;;;1.92;1.60;;;24.50;99.90;;;;;;5073189;28;20033;-84
2021/08/01 08:58:00;;;;;;;2.78;1.92;;;24.50;99.90;;;;;;5055632;28;20386;-85
2021/08/01 09:00:27;;;;;;;2.08;1.55;;;24.50;99.90;;;;;;5042583;28;20032;-82
2021/08/01 09:02:53;;;;;;;1.60;1.50;;;24.50;99.90;;;;;;5038495;28;20041;-84
2021/08/01 09:05:18;;;;;;;2.03;1.40;;;24.50;99.90;;;;;;5075886;28;20330;-84
2021/08/01 09:07:44;;;;;;;2.00;1.70;;;24.50;99.90;;;;;;5077202;28;20541;-84
2021/08/01 09:10:11;;;;;;;1.23;1.13;;;24.50;99.90;;;;;;5040680;28;20405;-85
2021/08/01 09:12:43;;;;;;;1.63;1.42;;;24.50;99.90;;;;;;5054828;28;20071;-84
2021/08/01 09:15:15;;;;;;;2.13;1.60;;;24.50;99.90;;;;;;5055801;28;20036;-83
2021/08/01 09:17:41;;;;;;;1.88;1.58;;;24.40;99.90;;;;;;5075342;28;20025;-83
2021/08/01 09:20:31;;;;;;;2.00;1.50;;;24.40;99.90;;;;;;5038504;28;20389;-84
2021/08/01 09:23:07;;;;;;;2.05;1.40;;;24.50;99.90;;;;;;5064140;28;20048;-84
2021/08/01 09:25:34;;;;;;;2.25;1.75;;;24.40;99.90;;;;;;5055788;28;20028;-84
2021/08/01 09:28:07;;;;;;;2.38;1.85;;;24.40;99.90;;;;;;5072508;28;20350;-84
2021/08/01 09:31:00;;;;;;;1.98;1.52;;;24.40;99.90;;;;;;5060587;28;20020;-84
2021/08/01 09:33:35;;;;;;;2.17;1.95;;;24.40;99.90;;;;;;5054621;28;20060;-84
2021/08/01 09:36:06;;;;;;;1.80;1.70;;;24.40;99.90;;;;;;5056402;28;20090;-84
2021/08/01 09:38:58;;;;;;;1.98;1.63;;;24.40;99.90;;;;;;5072672;28;20025;-84
2021/08/01 09:41:32;;;;;;;1.83;1.70;;;24.40;99.90;;;;;;5071695;28;20031;-84
2021/08/01 09:44:02;;;;;;;1.48;1.38;;;24.40;99.90;;;;;;5073852;28;20028;-83
2021/08/01 09:46:40;;;;;;;1.80;1.70;;;24.40;99.90;;;;;;5072697;28;20039;-84
2021/08/01 09:49:13;;;;;;;1.95;1.60;;;24.40;99.90;;;;;;5072284;28;20505;-84
2021/08/01 09:51:44;;;;;;;2.45;1.85;;;24.40;99.90;;;;;;5054213;28;20105;-84
2021/08/01 10:19:59;;;;;;;2.20;1.90;;;24.40;99.90;;;;;;5003837;28;20412;-90
2021/08/01 10:22:26;;;;;;;1.90;1.80;;;24.40;99.90;;;;;;5001998;28;20468;-89
2021/08/01 10:25:41;;;;;;;4.30;2.17;;;24.40;99.90;;;;;;5004075;28;20026;-88
2021/08/01 10:28:31;;;;;;;;;;;;;;;;;;;;;
2021/08/01 10:31:19;;;;;;;3.72;2.25;;;24.50;99.90;;;;;;5042540;28;20089;-89
2021/08/01 10:34:35;;;;;;;2.60;2.40;;;24.50;99.90;;;;;;5023736;28;20060;-89
2021/08/01 10:37:47;;;;;;;1.90;1.80;;;24.60;99.90;;;;;;5018139;28;20033;-89
2021/08/01 10:40:18;;;;;;;2.15;2.03;;;24.50;99.90;;;;;;5021111;28;20116;-89
2021/08/01 10:46:01;;;;;;;2.45;2.25;;;24.60;99.90;;;;;;4957279;29;20038;-88
2021/08/01 10:48:36;;;;;;;2.53;2.30;;;24.60;99.90;;;;;;5037016;28;20060;-88
2021/08/01 10:51:02;;;;;;;2.33;2.13;;;24.60;99.90;;;;;;5051258;28;20036;-89
2021/08/01 10:53:29;;;;;;;2.25;2.13;;;24.60;99.90;;;;;;5039146;28;20078;-87
2021/08/01 10:56:06;;;;;;;2.95;2.65;;;24.60;99.90;;;;;;5058036;28;20525;-87
2021/08/01 10:58:39;;;;;;;2.67;2.08;;;24.60;99.90;;;;;;5041198;28;20033;-89
2021/08/01 11:01:06;;;;;;;2.35;2.15;;;24.60;99.90;;;;;;5057612;28;20021;-89
2021/08/01 11:03:34;;;;;;;2.40;2.20;;;24.60;99.90;;;;;;5006390;28;20506;-89
2021/08/01 11:06:01;;;;;;;2.22;2.05;;;24.60;99.90;;;;;;5041326;28;20033;-88
2021/08/01 11:12:33;;;;;;;3.05;2.70;;;24.60;99.90;;;;;;5062260;28;20119;-89
2021/08/01 11:15:08;;;;;;;3.25;2.60;;;24.60;99.90;;;;;;5039665;28;20041;-90
2021/08/01 11:18:02;;;;;;;2.40;2.20;;;24.50;99.90;;;;;;4977213;28;20034;-89
2021/08/01 11:24:20;;;;;;;2.50;2.30;;;24.50;99.90;;;;;;4979540;28;20074;-89
2021/08/01 11:27:12;;;;;;;2.20;2.10;;;24.50;99.90;;;;;;4963036;28;20031;-89
2021/08/01 11:30:03;;;;;;;2.33;2.13;;;24.60;99.90;;;;;;4969885;28;20039;-88
2021/08/01 11:32:55;;;;;;;2.95;2.63;;;24.60;99.90;;;;;;4961511;28;20039;-88
2021/08/01 11:35:57;;;;;;;2.30;2.13;;;24.50;99.90;;;;;;4978039;28;20150;-88
2021/08/01 11:38:23;;;;;;;2.72;2.53;;;24.50;99.90;;;;;;4974969;28;20130;-88
2021/08/01 11:40:52;;;;;;;2.95;2.75;;;24.50;99.90;;;;;;4976918;28;20122;-88
2021/08/01 11:43:18;;;;;;;3.13;2.83;;;24.50;99.90;;;;;;5042875;28;20029;-88
2021/08/01 11:46:07;;;;;;;2.90;2.67;;;24.50;99.90;;;;;;5037762;28;20057;-87
2021/08/01 11:48:34;;;;;;;2.28;2.08;;;24.50;99.90;;;;;;5043001;28;20029;-87
2021/08/01 11:51:05;;;;;;;3.08;2.78;;;24.50;99.90;;;;;;5042768;28;20452;-88
2021/08/01 11:53:39;;;;;;;2.97;2.67;;;24.50;99.90;;;;;;5044142;28;20063;-87
2021/08/01 11:56:07;;;;;;;;;;;24.50;99.90;;;;;;5058195;28;20090;-87
2021/08/01 11:58:35;;;;;;;2.60;2.40;;;24.50;99.90;;;;;;5040007;28;19919;-88
2021/08/01 12:01:19;;;;;;;2.45;2.25;;;24.50;99.90;;;;;;5038223;28;20029;-88
2021/08/01 12:03:56;;;;;;;2.90;2.58;;;24.50;99.90;;;;;;5055459;28;20041;-87
2021/08/01 12:06:41;;;;;;;2.42;2.20;;;24.50;99.90;;;;;;5059533;28;20064;-87
2021/08/01 12:09:18;;;;;;;2.92;2.63;;;24.50;99.90;;;;;;5037756;28;20056;-88
2021/08/01 12:18:46;;;;;;;3.97;3.58;;;24.50;99.90;;;;;;5056166;28;20446;-87
2021/08/01 12:21:32;;;;;;;5.93;5.15;;;24.50;99.90;;;;;;5037794;28;20033;-87
2021/08/01 12:24:24;;;;;;;6.05;5.45;;;24.50;99.90;;;;;;5039525;28;20519;-87
2021/08/01 12:26:53;;;;;;;7.28;6.07;;;24.50;99.90;;;;;;5038287;28;20029;-87
2021/08/01 12:36:10;;;;;;;11.60;9.98;;;24.50;99.90;;;;;;5058411;28;20494;-87
2021/08/01 12:38:36;;;;;;;10.80;9.70;;;24.50;99.90;;;;;;5037377;28;20044;-88
2021/08/01 12:51:22;;;;;;;11.60;9.93;;;24.50;99.90;;;;;;4941565;28;20074;-90
2021/08/01 12:53:58;;;;;;;;;;;;;;;;;;;;;
2021/08/01 12:59:15;;;;;;;10.70;9.55;;;24.50;99.90;;;;;;5040295;28;20098;-87
2021/08/01 13:02:02;;;;;;;9.23;8.02;;;24.50;99.90;;;;;;5038457;28;20458;-87
2021/08/01 13:04:44;;;;;;;8.23;7.32;;;24.50;99.90;;;;;;5051700;28;20037;-87
2021/08/01 13:07:20;;;;;;;9.32;8.05;;;24.50;99.90;;;;;;5036801;28;20063;-85
2021/08/01 13:09:45;;;;;;;8.77;7.68;;;24.50;99.90;;;;;;5036084;28;20554;-85
2021/08/01 13:12:19;;;;;;;7.90;6.80;;;24.50;99.90;;;;;;5035311;28;20115;-85
2021/08/01 13:14:54;;;;;;;6.93;6.22;;;24.50;99.90;;;;;;5057005;28;20553;-90
2021/08/01 13:17:42;;;;;;;6.40;5.80;;;24.50;99.90;;;;;;5073945;28;20478;-89
2021/08/01 13:20:50;;;;;;;7.60;6.43;;;24.50;99.90;;;;;;5057858;28;20052;-89
2021/08/01 13:23:49;;;;;;;;;;;;;;;;;;;;;
2021/08/01 13:26:34;;;;;;;6.93;5.07;;;24.50;99.90;;;;;;5080548;28;20553;-87
2021/08/01 13:29:15;;;;;;;;;;;24.40;99.90;;;;;;5040003;28;20092;-89
2021/08/01 13:31:46;;;;;;;5.25;4.60;;;24.40;99.90;;;;;;5075492;28;19912;-89
2021/08/01 13:35:11;;;;;;;4.90;4.40;;;24.40;99.90;;;;;;5057053;28;20063;-90
2021/08/01 13:37:37;;;;;;;4.60;3.83;;;24.40;99.90;;;;;;5055564;28;20037;-89
2021/08/01 13:40:04;;;;;;;4.32;3.88;;;24.40;99.90;;;;;;5056209;28;20040;-89
2021/08/01 13:42:57;;;;;;;3.40;3.10;;;24.40;99.90;;;;;;5055054;28;20035;-89
2021/08/01 13:45:32;;;;;;;4.13;3.50;;;24.40;99.90;;;;;;5042819;28;20033;-89
2021/08/01 13:48:03;;;;;;;3.45;3.15;;;24.40;99.90;;;;;;5055520;28;20032;-89
2021/08/01 13:50:31;;;;;;;2.85;2.60;;;24.40;99.90;;;;;;5056167;28;20029;-89
2021/08/01 13:53:20;;;;;;;2.78;2.35;;;24.40;99.90;;;;;;5058378;28;20063;-89
2021/08/01 13:56:07;;;;;;;2.58;2.22;;;24.40;99.90;;;;;;5056484;28;20044;-89
2021/08/01 13:58:35;;;;;;;2.45;2.25;;;24.40;99.90;;;;;;5059916;28;20177;-87
2021/08/01 14:01:05;;;;;;;3.13;2.35;;;24.40;99.90;;;;;;5057771;28;20025;-88
2021/08/01 14:03:31;;;;;;;2.33;2.05;;;24.40;99.90;;;;;;5076187;28;20039;-87
2021/08/01 14:05:56;;;;;;;2.08;1.88;;;24.40;99.90;;;;;;5074109;28;20025;-90
2021/08/01 14:08:24;;;;;;;2.45;1.83;;;24.40;99.90;;;;;;5059237;28;20068;-88
2021/08/01 14:11:00;;;;;;;;;;;;;;;;;;;;;
2021/08/01 14:13:35;;;;;;;2.00;1.70;;;24.40;99.90;;;;;;5073900;28;20052;-91